Time;durP1;ratioP1;P1;durP2;ratioP2;P2;SDS_P1;SDS_P2;PMS_P1;PMS_P2;Temp;Humidity;BMP_temperature;BMP_pressure;BME280_temperature;BME280_humidity;BME280_pressure;Samples;Min_cycle;Max_cycle;Signal;HPM_P1;HPM_P2
2022/08/13 00:00:46;;;;;;;1.40;1.40;;;29.30;52.00;;;;;;5020121;28;20465;-78
2022/08/13 00:03:16;;;;;;;1.70;1.23;;;29.30;52.00;;;;;;5021416;28;20517;-78
2022/08/13 00:06:24;;;;;;;1.60;1.50;;;29.30;52.00;;;;;;5018091;28;20571;-78
2022/08/13 00:08:56;;;;;;;1.30;1.20;;;29.30;52.00;;;;;;5016527;28;20462;-78
2022/08/13 00:14:32;;;;;;;1.23;1.20;;;29.30;52.00;;;;;;5027217;28;20442;-78
2022/08/13 00:17:06;;;;;;;1.10;1.10;;;29.40;51.90;;;;;;5020913;28;20485;-78
2022/08/13 00:19:38;;;;;;;1.13;1.13;;;29.30;51.90;;;;;;5022553;28;20874;-80
2022/08/13 00:22:07;;;;;;;1.40;1.40;;;29.30;52.00;;;;;;5027809;28;20790;-78
2022/08/13 00:24:56;;;;;;;1.50;1.50;;;29.30;52.00;;;;;;5010864;28;20479;-79
2022/08/13 00:27:26;;;;;;;1.20;1.20;;;29.30;52.00;;;;;;4997969;28;20546;-78
2022/08/13 00:30:16;;;;;;;1.50;1.40;;;29.20;52.10;;;;;;5012375;28;20490;-78
2022/08/13 00:33:01;;;;;;;1.57;1.47;;;29.20;52.10;;;;;;5016725;28;20478;-78
2022/08/13 00:35:31;;;;;;;1.20;1.20;;;29.20;52.10;;;;;;5020274;28;20524;-78
2022/08/13 00:38:10;;;;;;;1.50;1.40;;;29.20;52.10;;;;;;5024629;28;20454;-78
2022/08/13 00:40:42;;;;;;;1.20;1.13;;;29.30;52.00;;;;;;5012276;28;20444;-78
2022/08/13 00:43:25;;;;;;;1.53;1.43;;;29.30;52.00;;;;;;5020956;28;20508;-78
2022/08/13 00:45:55;;;;;;;1.40;1.40;;;29.30;52.00;;;;;;5018460;28;20558;-81
2022/08/13 00:48:42;;;;;;;1.53;1.43;;;29.30;52.00;;;;;;5008392;28;20528;-78
2022/08/13 00:51:23;;;;;;;1.17;1.17;;;29.30;51.90;;;;;;5026305;28;20509;-78
2022/08/13 00:54:14;;;;;;;1.70;1.50;;;29.30;52.00;;;;;;5031984;28;20491;-77
2022/08/13 00:56:45;;;;;;;1.60;1.50;;;29.30;52.00;;;;;;5026431;28;20456;-78
2022/08/13 00:59:19;;;;;;;1.10;1.10;;;29.30;51.90;;;;;;5022897;28;20486;-79
2022/08/13 01:01:52;;;;;;;1.87;1.50;;;29.30;51.90;;;;;;5025397;28;21021;-78
2022/08/13 01:04:26;;;;;;;1.07;1.07;;;29.30;52.00;;;;;;5019368;28;20459;-78
2022/08/13 01:06:56;;;;;;;1.20;1.20;;;29.30;52.00;;;;;;5024981;28;20485;-78
2022/08/13 01:09:29;;;;;;;1.17;1.17;;;29.20;52.00;;;;;;5031162;28;20470;-78
2022/08/13 01:12:19;;;;;;;2.03;1.50;;;29.20;52.00;;;;;;5017584;28;20486;-78
2022/08/13 01:14:55;;;;;;;1.10;1.10;;;29.20;52.00;;;;;;5025450;28;20451;-78
2022/08/13 01:17:27;;;;;;;2.00;1.90;;;29.20;52.00;;;;;;5019998;28;20820;-78
2022/08/13 01:20:14;;;;;;;1.30;1.30;;;29.20;52.00;;;;;;5005425;28;20460;-78
2022/08/13 01:23:04;;;;;;;1.60;1.50;;;29.20;52.00;;;;;;5019342;28;20454;-78
2022/08/13 01:25:36;;;;;;;1.37;1.37;;;29.20;52.00;;;;;;5011410;28;20501;-80
2022/08/13 01:28:22;;;;;;;1.60;1.50;;;29.20;52.00;;;;;;5022452;28;20478;-78
2022/08/13 01:30:53;;;;;;;1.17;1.17;;;29.20;52.00;;;;;;5024984;28;20450;-78
2022/08/13 01:33:23;;;;;;;1.20;1.20;;;29.20;52.00;;;;;;5017533;28;20458;-79
2022/08/13 01:35:53;;;;;;;1.20;1.20;;;29.10;52.10;;;;;;5031188;28;20443;-78
2022/08/13 01:38:26;;;;;;;1.33;1.33;;;29.10;52.10;;;;;;5025186;28;20508;-78
2022/08/13 01:40:57;;;;;;;1.20;1.20;;;29.10;52.20;;;;;;5023552;28;20944;-79
2022/08/13 01:43:29;;;;;;;1.20;1.20;;;29.10;52.20;;;;;;5026056;28;20456;-79
2022/08/13 01:45:58;;;;;;;1.40;1.40;;;29.10;52.20;;;;;;5021489;28;20474;-78
2022/08/13 01:51:30;;;;;;;1.07;1.07;;;29.10;52.20;;;;;;4996189;28;20463;-78
2022/08/13 01:54:17;;;;;;;1.40;1.30;;;29.00;52.30;;;;;;5027143;28;20453;-79
2022/08/13 01:57:07;;;;;;;1.50;1.40;;;29.00;52.30;;;;;;5013848;28;20466;-78
2022/08/13 01:59:39;;;;;;;1.50;1.40;;;29.00;52.30;;;;;;5012879;28;20560;-78
2022/08/13 02:02:31;;;;;;;1.20;1.20;;;29.00;52.20;;;;;;5027908;28;20643;-79
2022/08/13 02:05:12;;;;;;;1.10;1.10;;;29.00;52.20;;;;;;5018837;28;20792;-78
2022/08/13 02:08:00;;;;;;;1.50;1.40;;;29.00;52.20;;;;;;5019926;28;20524;-78
2022/08/13 02:10:37;;;;;;;1.70;1.60;;;29.00;52.30;;;;;;5016220;28;20485;-78
2022/08/13 02:13:11;;;;;;;1.23;1.23;;;29.00;52.20;;;;;;5023908;28;20513;-78
2022/08/13 02:15:46;;;;;;;1.30;1.20;;;29.00;52.30;;;;;;5010256;28;20459;-78
2022/08/13 02:18:20;;;;;;;1.27;1.27;;;29.00;52.30;;;;;;5007516;28;20458;-78
2022/08/13 02:20:51;;;;;;;1.37;1.37;;;29.00;52.30;;;;;;5039039;28;20800;-78
2022/08/13 02:23:22;;;;;;;1.50;1.40;;;28.90;52.30;;;;;;5015477;28;20952;-78
2022/08/13 02:26:13;;;;;;;1.67;1.57;;;28.90;52.30;;;;;;5020200;28;20553;-78
2022/08/13 02:28:43;;;;;;;1.20;1.20;;;29.00;52.30;;;;;;5011769;28;20511;-78
2022/08/13 02:31:17;;;;;;;1.33;1.30;;;29.00;52.30;;;;;;5022090;28;20450;-78
2022/08/13 02:34:06;;;;;;;1.20;1.20;;;29.00;52.30;;;;;;5007994;28;20455;-78
2022/08/13 02:36:41;;;;;;;1.40;1.40;;;28.90;52.30;;;;;;5024278;28;20467;-78
2022/08/13 02:39:14;;;;;;;1.30;1.30;;;28.90;52.30;;;;;;5012699;28;20449;-80
2022/08/13 02:41:43;;;;;;;1.67;1.57;;;28.90;52.30;;;;;;5021489;28;20479;-78
2022/08/13 02:44:21;;;;;;;1.60;1.50;;;28.90;52.30;;;;;;5019608;28;20452;-79
2022/08/13 02:47:02;;;;;;;1.50;1.40;;;28.90;52.30;;;;;;5005540;28;20463;-78
2022/08/13 02:49:31;;;;;;;1.40;1.30;;;28.90;52.40;;;;;;5016657;28;20450;-78
2022/08/13 02:52:14;;;;;;;1.43;1.33;;;28.90;52.40;;;;;;5023387;28;20535;-79
2022/08/13 02:54:45;;;;;;;1.60;1.50;;;28.90;52.30;;;;;;5030216;28;20461;-78
2022/08/13 02:57:25;;;;;;;1.20;1.20;;;28.90;52.40;;;;;;5017083;28;20802;-78
2022/08/13 02:59:55;;;;;;;1.10;1.10;;;28.90;52.30;;;;;;5016574;28;20550;-78
2022/08/13 03:02:38;;;;;;;1.03;1.03;;;28.90;52.40;;;;;;5014556;28;20462;-78
2022/08/13 03:05:09;;;;;;;1.20;1.20;;;28.90;52.40;;;;;;5016292;28;21020;-79
2022/08/13 03:07:42;;;;;;;1.60;1.50;;;28.90;52.40;;;;;;5014825;28;20473;-78
2022/08/13 03:10:22;;;;;;;1.10;1.10;;;28.90;52.40;;;;;;5016334;28;20466;-78
2022/08/13 03:13:17;;;;;;;1.60;1.50;;;28.90;52.40;;;;;;5023178;28;20555;-78
2022/08/13 03:15:52;;;;;;;1.10;1.10;;;28.80;52.40;;;;;;5013670;28;20487;-78
2022/08/13 03:18:33;;;;;;;1.73;1.63;;;28.80;52.50;;;;;;5025605;28;20462;-78
2022/08/13 03:21:22;;;;;;;1.40;1.40;;;28.80;52.60;;;;;;5022269;28;20514;-80
2022/08/13 03:24:13;;;;;;;1.60;1.50;;;28.80;52.60;;;;;;5026077;28;20456;-78
2022/08/13 03:26:56;;;;;;;1.30;1.30;;;28.80;52.60;;;;;;5016352;28;20472;-78
2022/08/13 03:29:28;;;;;;;1.40;1.30;;;28.80;52.60;;;;;;5025729;28;20508;-78
2022/08/13 03:32:18;;;;;;;1.50;1.40;;;28.80;52.60;;;;;;5023149;28;20489;-78
2022/08/13 03:34:59;;;;;;;1.13;1.13;;;28.80;52.60;;;;;;5029046;28;20466;-78
2022/08/13 03:37:41;;;;;;;1.40;1.40;;;28.80;52.60;;;;;;5022263;28;20501;-77
2022/08/13 03:40:11;;;;;;;1.27;1.27;;;28.80;52.60;;;;;;5022080;28;20959;-78
2022/08/13 03:42:42;;;;;;;1.40;1.40;;;28.70;52.60;;;;;;5021364;28;20546;-79
2022/08/13 03:45:24;;;;;;;1.40;1.40;;;28.80;52.60;;;;;;5020522;28;20481;-78
2022/08/13 03:47:53;;;;;;;1.43;1.43;;;28.70;52.60;;;;;;5014353;28;20491;-78
2022/08/13 03:50:25;;;;;;;1.47;1.47;;;28.70;52.60;;;;;;5027547;28;20455;-78
2022/08/13 03:52:53;;;;;;;1.80;1.70;;;28.70;52.60;;;;;;5022109;28;20494;-78
2022/08/13 03:55:23;;;;;;;1.43;1.33;;;28.70;52.60;;;;;;5024698;28;20496;-78
2022/08/13 03:57:55;;;;;;;1.53;1.53;;;28.70;52.70;;;;;;5025394;28;20984;-78
2022/08/13 04:00:34;;;;;;;1.70;1.60;;;28.70;52.70;;;;;;5020506;28;20482;-78
2022/08/13 04:03:16;;;;;;;1.70;1.60;;;28.70;52.70;;;;;;5015630;28;20965;-78
2022/08/13 04:05:44;;;;;;;1.37;1.33;;;28.70;52.70;;;;;;5021352;28;20448;-78
2022/08/13 04:08:28;;;;;;;1.63;1.53;;;28.70;52.70;;;;;;5009047;28;20608;-78
2022/08/13 04:10:57;;;;;;;1.73;1.63;;;28.70;52.70;;;;;;5005368;28;20920;-77
2022/08/13 04:13:28;;;;;;;1.80;1.70;;;28.70;52.70;;;;;;5025702;28;20505;-78
2022/08/13 04:16:26;;;;;;;1.60;1.50;;;28.70;52.70;;;;;;5024879;28;20571;-78
2022/08/13 04:19:00;;;;;;;1.83;1.73;;;28.70;52.70;;;;;;5018432;28;20448;-78
2022/08/13 04:21:32;;;;;;;1.67;1.57;;;28.70;52.70;;;;;;5009759;28;20814;-78
2022/08/13 04:24:03;;;;;;;1.07;1.07;;;28.70;52.70;;;;;;5006264;28;20445;-78
2022/08/13 04:26:33;;;;;;;1.60;1.60;;;28.60;52.70;;;;;;5010716;28;20987;-78
2022/08/13 04:29:04;;;;;;;1.80;1.70;;;28.70;52.70;;;;;;5025294;28;20451;-78
2022/08/13 04:31:36;;;;;;;1.50;1.27;;;28.60;52.70;;;;;;5010006;28;20546;-77
2022/08/13 04:34:20;;;;;;;2.10;1.50;;;28.60;52.70;;;;;;5009503;28;20453;-79
2022/08/13 04:37:09;;;;;;;1.50;1.43;;;28.60;52.70;;;;;;5019414;28;20447;-78
2022/08/13 04:39:50;;;;;;;1.60;1.50;;;28.60;52.70;;;;;;5021149;28;20867;-78
2022/08/13 04:42:48;;;;;;;1.53;1.43;;;28.60;52.70;;;;;;5018934;28;20828;-78
2022/08/13 04:45:18;;;;;;;1.57;1.50;;;28.60;52.80;;;;;;5009395;28;20465;-79
2022/08/13 04:47:53;;;;;;;1.73;1.63;;;28.60;52.70;;;;;;5019020;28;21046;-78
2022/08/13 04:50:25;;;;;;;2.00;1.90;;;28.60;52.80;;;;;;5017439;28;20539;-78
2022/08/13 04:52:56;;;;;;;1.43;1.43;;;28.60;52.80;;;;;;5023119;28;20554;-78
2022/08/13 04:55:26;;;;;;;1.37;1.37;;;28.60;52.80;;;;;;5017625;28;20526;-79
2022/08/13 04:58:15;;;;;;;1.77;1.67;;;28.60;52.80;;;;;;5026734;28;20488;-78
2022/08/13 05:00:45;;;;;;;1.50;1.40;;;28.60;52.80;;;;;;5012127;28;20958;-78
2022/08/13 05:03:22;;;;;;;1.40;1.40;;;28.60;52.80;;;;;;5026148;28;20448;-78
2022/08/13 05:06:00;;;;;;;2.50;1.30;;;28.60;52.80;;;;;;5016952;28;20463;-77
2022/08/13 05:08:31;;;;;;;1.33;1.33;;;28.60;52.80;;;;;;5019720;28;20484;-78
2022/08/13 05:11:02;;;;;;;1.70;1.60;;;28.50;52.80;;;;;;5023389;28;20455;-78
2022/08/13 05:13:54;;;;;;;1.53;1.50;;;28.60;52.80;;;;;;5015026;28;20538;-77
2022/08/13 05:16:24;;;;;;;1.70;1.60;;;28.60;52.80;;;;;;5020361;28;20683;-78
2022/08/13 05:18:57;;;;;;;1.80;1.70;;;28.50;52.80;;;;;;5019512;28;20473;-78
2022/08/13 05:21:27;;;;;;;1.80;1.70;;;28.50;52.80;;;;;;5025405;28;20452;-78
2022/08/13 05:24:15;;;;;;;1.57;1.47;;;28.50;52.80;;;;;;5023178;28;20531;-78
2022/08/13 05:27:03;;;;;;;2.20;2.10;;;28.50;52.80;;;;;;5016660;28;20457;-78
2022/08/13 05:29:38;;;;;;;2.07;1.97;;;28.50;52.80;;;;;;5023678;28;20443;-78
2022/08/13 05:32:28;;;;;;;1.33;1.33;;;28.50;52.80;;;;;;5022428;28;20982;-78
2022/08/13 05:35:05;;;;;;;1.70;1.60;;;28.50;52.80;;;;;;5024106;28;20463;-78
2022/08/13 05:37:36;;;;;;;1.67;1.57;;;28.50;52.80;;;;;;5023934;28;21038;-78
2022/08/13 05:40:25;;;;;;;1.80;1.70;;;28.50;52.80;;;;;;5029600;28;20459;-78
2022/08/13 05:43:09;;;;;;;1.83;1.73;;;28.50;52.80;;;;;;5022479;28;20534;-79
2022/08/13 05:45:38;;;;;;;2.07;1.83;;;28.50;52.80;;;;;;5017000;28;21116;-78
2022/08/13 05:48:21;;;;;;;1.20;1.20;;;28.50;52.80;;;;;;5026953;28;20524;-78
2022/08/13 05:50:59;;;;;;;2.00;1.90;;;28.50;52.80;;;;;;5021251;28;20449;-78
2022/08/13 05:53:28;;;;;;;1.60;1.50;;;28.50;52.80;;;;;;5026295;28;20546;-78
2022/08/13 05:56:23;;;;;;;1.30;1.30;;;28.50;52.80;;;;;;5017239;28;20473;-78
2022/08/13 05:58:52;;;;;;;2.70;1.37;;;28.50;52.80;;;;;;5020919;28;20872;-78
2022/08/13 06:04:24;;;;;;;1.53;1.53;;;28.50;52.80;;;;;;5019805;28;20444;-78
2022/08/13 06:07:11;;;;;;;1.87;1.77;;;28.50;52.80;;;;;;5029820;28;20523;-79
2022/08/13 06:09:40;;;;;;;1.80;1.70;;;28.50;52.80;;;;;;5025323;28;20480;-78
2022/08/13 06:12:08;;;;;;;1.70;1.60;;;28.50;52.80;;;;;;5024287;28;20452;-79
2022/08/13 06:14:58;;;;;;;1.80;1.70;;;28.50;52.80;;;;;;5014392;28;20470;-78
2022/08/13 06:17:35;;;;;;;1.33;1.30;;;28.50;52.80;;;;;;5018804;28;20495;-78
2022/08/13 06:20:09;;;;;;;1.43;1.33;;;28.50;52.80;;;;;;5032356;28;20452;-78
2022/08/13 06:22:40;;;;;;;1.87;1.77;;;28.50;52.80;;;;;;5010015;28;20446;-78
2022/08/13 06:25:09;;;;;;;2.50;2.10;;;28.60;52.80;;;;;;5026214;28;20447;-79
2022/08/13 06:27:39;;;;;;;1.50;1.50;;;28.50;52.70;;;;;;5010222;28;20540;-79
2022/08/13 06:30:27;;;;;;;1.33;1.33;;;28.60;52.70;;;;;;5028798;28;20803;-78
2022/08/13 06:33:01;;;;;;;1.57;1.47;;;28.60;52.80;;;;;;5024288;28;20925;-78
2022/08/13 06:35:51;;;;;;;1.60;1.60;;;28.60;52.70;;;;;;5017667;28;20827;-78
2022/08/13 06:38:29;;;;;;;1.67;1.57;;;28.60;52.70;;;;;;5020308;28;20506;-77
2022/08/13 06:41:02;;;;;;;1.80;1.70;;;28.60;52.70;;;;;;5015932;28;20452;-78
2022/08/13 06:43:31;;;;;;;1.53;1.43;;;28.60;52.70;;;;;;5021110;28;20990;-77
2022/08/13 06:46:21;;;;;;;1.90;1.80;;;28.60;52.70;;;;;;5014051;28;20547;-77
2022/08/13 06:48:57;;;;;;;1.97;1.87;;;28.60;52.70;;;;;;5012998;28;20472;-77
2022/08/13 06:51:38;;;;;;;1.90;1.80;;;28.60;52.70;;;;;;5019979;28;20797;-78
2022/08/13 06:54:09;;;;;;;2.20;2.10;;;28.60;52.70;;;;;;5006398;28;20540;-78
2022/08/13 06:56:56;;;;;;;1.50;1.50;;;28.60;52.70;;;;;;5007332;28;20446;-78
2022/08/13 06:59:46;;;;;;;1.90;1.80;;;28.60;52.70;;;;;;5020921;28;20821;-78
2022/08/13 07:02:35;;;;;;;1.70;1.60;;;28.60;52.70;;;;;;5008949;28;20464;-78
2022/08/13 07:05:06;;;;;;;1.70;1.60;;;28.60;52.70;;;;;;5011810;28;20461;-78
2022/08/13 07:07:44;;;;;;;1.63;1.57;;;28.60;52.70;;;;;;5009981;28;20543;-78
2022/08/13 07:10:14;;;;;;;1.60;1.50;;;28.60;52.70;;;;;;5016253;28;20520;-78
2022/08/13 07:12:43;;;;;;;2.00;1.90;;;28.60;52.70;;;;;;5014343;28;20557;-78
2022/08/13 07:15:16;;;;;;;1.67;1.57;;;28.60;52.70;;;;;;5023250;28;20555;-77
2022/08/13 07:18:05;;;;;;;2.00;1.90;;;28.60;52.70;;;;;;5032689;28;20584;-77
2022/08/13 07:20:33;;;;;;;1.80;1.70;;;28.60;52.70;;;;;;5009552;28;20577;-78
2022/08/13 07:23:05;;;;;;;2.10;2.00;;;28.60;52.60;;;;;;5018521;28;20504;-77
2022/08/13 07:25:57;;;;;;;2.17;2.07;;;28.60;52.70;;;;;;5015726;28;20527;-78
2022/08/13 07:28:28;;;;;;;2.10;2.00;;;28.60;52.70;;;;;;5014213;28;20478;-77
2022/08/13 07:31:25;;;;;;;1.93;1.83;;;28.60;52.60;;;;;;5028751;28;21002;-77
2022/08/13 07:34:13;;;;;;;1.90;1.80;;;28.70;52.70;;;;;;5009024;28;20458;-81
2022/08/13 07:36:43;;;;;;;1.80;1.70;;;28.60;52.60;;;;;;5023470;28;20496;-79
2022/08/13 07:39:13;;;;;;;1.40;1.40;;;28.70;52.60;;;;;;5026995;28;20857;-78
2022/08/13 07:41:46;;;;;;;1.70;1.60;;;28.60;52.70;;;;;;5028569;28;20456;-77
2022/08/13 07:44:31;;;;;;;1.70;1.60;;;28.70;52.70;;;;;;5019694;28;20459;-80
2022/08/13 07:47:22;;;;;;;1.93;1.83;;;28.70;52.70;;;;;;5014212;28;20499;-78
2022/08/13 07:49:57;;;;;;;1.87;1.77;;;28.70;52.70;;;;;;5000768;28;20953;-78
2022/08/13 07:52:27;;;;;;;1.70;1.60;;;28.70;52.70;;;;;;5014165;28;20928;-78
2022/08/13 07:55:00;;;;;;;1.53;1.53;;;28.70;52.70;;;;;;5021747;28;20460;-78
2022/08/13 07:57:32;;;;;;;1.60;1.60;;;28.70;52.70;;;;;;5012101;28;20488;-78
2022/08/13 08:00:13;;;;;;;1.80;1.70;;;28.70;52.70;;;;;;5019214;28;20470;-78
2022/08/13 08:02:55;;;;;;;2.03;1.93;;;28.70;52.70;;;;;;5008907;28;20865;-78
2022/08/13 08:05:25;;;;;;;1.90;1.80;;;28.70;52.70;;;;;;5017939;28;20837;-77
2022/08/13 08:08:08;;;;;;;1.67;1.57;;;28.70;52.70;;;;;;5021814;28;20457;-78
2022/08/13 08:10:40;;;;;;;1.63;1.53;;;28.70;52.70;;;;;;5010726;28;20516;-77
2022/08/13 08:13:10;;;;;;;1.40;1.40;;;28.70;52.70;;;;;;5021793;28;20980;-78
2022/08/13 08:15:42;;;;;;;1.70;1.60;;;28.70;52.70;;;;;;5011932;28;20513;-79
2022/08/13 08:18:32;;;;;;;2.10;2.00;;;28.70;52.70;;;;;;5008347;28;20490;-78
2022/08/13 08:21:23;;;;;;;2.00;1.90;;;28.70;52.70;;;;;;5013586;28;20567;-78
2022/08/13 08:24:13;;;;;;;1.70;1.60;;;28.70;52.70;;;;;;5006970;28;20549;-78
2022/08/13 08:26:53;;;;;;;1.93;1.83;;;28.70;52.70;;;;;;5012701;28;20977;-78
2022/08/13 08:29:23;;;;;;;1.80;1.70;;;28.70;52.70;;;;;;5010743;28;20477;-78
2022/08/13 08:31:52;;;;;;;1.90;1.80;;;28.70;52.70;;;;;;5020038;28;20449;-78
2022/08/13 08:34:29;;;;;;;1.60;1.60;;;28.70;52.70;;;;;;5018903;28;20454;-77
2022/08/13 08:36:58;;;;;;;1.90;1.80;;;28.70;52.70;;;;;;5018305;28;20503;-77
2022/08/13 08:42:40;;;;;;;1.77;1.67;;;28.70;52.70;;;;;;5025678;28;20457;-78
2022/08/13 08:45:31;;;;;;;1.83;1.73;;;28.70;52.70;;;;;;5021455;28;20592;-78
2022/08/13 08:48:20;;;;;;;1.90;1.80;;;28.70;52.70;;;;;;5009708;28;20466;-80
2022/08/13 08:50:55;;;;;;;1.63;1.57;;;28.70;52.70;;;;;;5016664;28;20465;-78
2022/08/13 08:53:25;;;;;;;1.93;1.83;;;28.70;52.70;;;;;;5026228;28;20550;-78
2022/08/13 08:56:20;;;;;;;2.00;1.90;;;28.70;52.70;;;;;;5006392;28;20487;-78
2022/08/13 08:58:55;;;;;;;1.87;1.77;;;28.70;52.70;;;;;;5009432;28;20576;-78
2022/08/13 09:01:35;;;;;;;1.87;1.77;;;28.70;52.70;;;;;;5014006;28;20476;-78
2022/08/13 09:04:25;;;;;;;1.70;1.67;;;28.70;52.70;;;;;;5013983;28;20542;-78
2022/08/13 09:07:13;;;;;;;1.43;1.40;;;28.70;52.70;;;;;;5008964;28;20458;-78
2022/08/13 09:09:44;;;;;;;1.80;1.70;;;28.80;52.70;;;;;;5018876;28;20504;-78
2022/08/13 09:12:15;;;;;;;1.73;1.63;;;28.80;52.70;;;;;;5027747;28;20477;-77
2022/08/13 09:14:45;;;;;;;2.00;1.90;;;28.80;52.70;;;;;;5019735;28;21016;-77
2022/08/13 09:17:16;;;;;;;1.80;1.70;;;28.80;52.70;;;;;;5011599;28;20484;-77
2022/08/13 09:19:44;;;;;;;1.90;1.80;;;28.80;52.70;;;;;;5019322;28;20871;-77
2022/08/13 09:22:20;;;;;;;2.27;1.70;;;28.80;52.70;;;;;;4998204;28;20516;-78
2022/08/13 09:24:57;;;;;;;1.50;1.50;;;28.80;52.70;;;;;;5008733;28;20453;-77
2022/08/13 09:27:30;;;;;;;1.87;1.77;;;28.80;52.70;;;;;;5023980;28;20449;-78
2022/08/13 09:30:19;;;;;;;1.83;1.73;;;28.80;52.70;;;;;;5020999;28;20488;-78
2022/08/13 09:32:56;;;;;;;1.90;1.80;;;28.80;52.70;;;;;;5024393;28;20443;-78
2022/08/13 09:35:26;;;;;;;2.07;1.87;;;28.80;52.70;;;;;;5019620;28;20457;-77
2022/08/13 09:38:04;;;;;;;1.73;1.63;;;28.80;52.70;;;;;;5019535;28;20446;-78
2022/08/13 09:40:37;;;;;;;1.83;1.73;;;28.80;52.70;;;;;;5024318;28;20933;-77
2022/08/13 09:43:22;;;;;;;1.70;1.63;;;28.80;52.70;;;;;;5014811;28;20444;-78
2022/08/13 09:46:31;;;;;;;1.90;1.80;;;28.80;52.70;;;;;;5024323;28;20552;-78
2022/08/13 09:49:03;;;;;;;1.70;1.60;;;28.80;52.70;;;;;;5026057;28;20448;-77
2022/08/13 09:51:41;;;;;;;1.83;1.73;;;28.80;52.70;;;;;;5012339;28;20497;-77
2022/08/13 09:54:27;;;;;;;1.70;1.60;;;28.80;52.70;;;;;;5023792;28;20460;-78
2022/08/13 09:56:58;;;;;;;2.00;1.90;;;28.80;52.70;;;;;;5023510;28;20449;-78
2022/08/13 09:59:32;;;;;;;1.83;1.73;;;28.80;52.70;;;;;;5023099;28;20455;-78
2022/08/13 10:02:09;;;;;;;2.00;1.90;;;28.80;52.60;;;;;;5014147;28;20452;-79
2022/08/13 10:04:42;;;;;;;1.87;1.77;;;28.80;52.60;;;;;;5017142;28;20537;-78
2022/08/13 10:07:15;;;;;;;1.87;1.77;;;28.90;52.60;;;;;;5026653;28;20444;-78
2022/08/13 10:09:48;;;;;;;1.27;1.27;;;28.80;52.60;;;;;;5014265;28;20803;-78
2022/08/13 10:12:37;;;;;;;1.50;1.50;;;28.90;52.60;;;;;;5022634;28;20550;-77
2022/08/13 10:15:08;;;;;;;1.70;1.60;;;28.90;52.60;;;;;;5012053;28;20768;-77
2022/08/13 10:17:55;;;;;;;1.93;1.83;;;28.90;52.60;;;;;;5013267;28;20472;-77
2022/08/13 10:20:33;;;;;;;1.83;1.73;;;28.90;52.60;;;;;;5020730;28;20449;-77
2022/08/13 10:23:04;;;;;;;1.87;1.77;;;28.90;52.60;;;;;;5012033;28;20507;-78
2022/08/13 10:25:32;;;;;;;1.97;1.87;;;28.90;52.50;;;;;;5018330;28;20460;-78
2022/08/13 10:28:17;;;;;;;1.70;1.60;;;28.90;52.50;;;;;;5018169;28;20463;-77
2022/08/13 10:31:00;;;;;;;1.73;1.63;;;28.90;52.60;;;;;;5007340;28;20476;-77
2022/08/13 10:34:13;;;;;;;1.50;1.50;;;28.90;52.50;;;;;;5010920;28;20912;-78
2022/08/13 10:37:03;;;;;;;1.40;1.40;;;28.90;52.50;;;;;;5014844;28;20462;-78
2022/08/13 10:39:39;;;;;;;1.83;1.73;;;28.90;52.50;;;;;;5008757;28;20467;-78
2022/08/13 10:42:21;;;;;;;1.60;1.60;;;28.90;52.50;;;;;;5020354;28;21026;-78
2022/08/13 10:44:51;;;;;;;2.43;1.37;;;28.90;52.50;;;;;;5019193;28;20473;-78
2022/08/13 10:47:21;;;;;;;1.60;1.60;;;28.90;52.50;;;;;;5022274;28;20491;-78
2022/08/13 10:50:09;;;;;;;1.73;1.63;;;28.90;52.50;;;;;;5013356;28;20591;-78
2022/08/13 10:52:39;;;;;;;1.80;1.70;;;28.90;52.50;;;;;;5025535;28;20532;-81
2022/08/13 10:55:12;;;;;;;1.73;1.63;;;28.90;52.50;;;;;;5010039;28;20447;-78
2022/08/13 10:57:46;;;;;;;1.80;1.70;;;28.90;52.50;;;;;;5025274;28;20488;-78
2022/08/13 11:00:31;;;;;;;1.70;1.60;;;28.90;52.50;;;;;;5023082;28;20464;-77
2022/08/13 11:02:59;;;;;;;1.87;1.70;;;29.00;52.50;;;;;;5013926;28;20453;-78
2022/08/13 11:05:28;;;;;;;1.83;1.73;;;29.00;52.50;;;;;;5021324;28;20503;-79
2022/08/13 11:07:58;;;;;;;1.60;1.50;;;29.00;52.60;;;;;;5025269;28;20683;-78
2022/08/13 11:10:28;;;;;;;1.27;1.27;;;29.00;52.60;;;;;;5025069;28;20480;-78
2022/08/13 11:13:00;;;;;;;1.80;1.70;;;29.00;52.60;;;;;;5017842;28;20841;-77
2022/08/13 11:15:42;;;;;;;1.60;1.50;;;29.00;52.60;;;;;;5010772;28;20495;-77
2022/08/13 11:18:14;;;;;;;1.60;1.50;;;29.00;52.60;;;;;;5013873;28;20543;-77
2022/08/13 11:21:02;;;;;;;1.30;1.30;;;29.00;52.70;;;;;;5021520;28;20582;-77
2022/08/13 11:23:54;;;;;;;1.20;1.20;;;29.00;52.70;;;;;;5024465;28;20472;-77
2022/08/13 11:26:27;;;;;;;1.73;1.63;;;29.00;52.80;;;;;;5020994;28;20448;-77
2022/08/13 11:29:07;;;;;;;1.73;1.63;;;29.10;52.70;;;;;;5026731;28;20450;-77
2022/08/13 11:31:35;;;;;;;1.87;1.77;;;29.10;52.70;;;;;;5012784;28;20500;-78
2022/08/13 11:34:25;;;;;;;1.63;1.53;;;29.10;52.60;;;;;;5027489;28;20568;-77
2022/08/13 11:36:54;;;;;;;1.27;1.27;;;29.10;52.70;;;;;;5010667;28;20460;-77
2022/08/13 11:39:25;;;;;;;1.50;1.50;;;29.10;52.70;;;;;;5018210;28;20478;-77
2022/08/13 11:42:13;;;;;;;1.67;1.60;;;29.10;52.70;;;;;;5012829;28;20456;-77
2022/08/13 11:44:41;;;;;;;2.13;2.03;;;29.10;52.70;;;;;;5026508;28;20463;-78
2022/08/13 11:47:16;;;;;;;1.30;1.30;;;29.10;52.60;;;;;;5023141;28;20450;-77
2022/08/13 11:49:52;;;;;;;1.70;1.60;;;29.10;52.60;;;;;;5022797;28;20453;-77
2022/08/13 11:52:21;;;;;;;1.77;1.67;;;29.10;52.60;;;;;;5026986;28;20481;-78
2022/08/13 11:54:57;;;;;;;1.73;1.63;;;29.10;52.50;;;;;;5028807;28;20441;-77
2022/08/13 11:57:25;;;;;;;1.53;1.43;;;29.10;52.50;;;;;;5019259;28;20518;-77
2022/08/13 12:00:08;;;;;;;1.70;1.60;;;29.20;52.50;;;;;;5027776;28;20509;-77
2022/08/13 12:02:36;;;;;;;1.40;1.40;;;29.10;52.50;;;;;;5012179;28;20456;-77
2022/08/13 12:05:05;;;;;;;1.90;1.80;;;29.20;52.40;;;;;;5014221;28;20463;-78
2022/08/13 12:07:40;;;;;;;1.27;1.27;;;29.20;52.40;;;;;;5011333;28;20526;-77
2022/08/13 12:10:17;;;;;;;1.30;1.30;;;29.20;52.40;;;;;;4991287;28;20826;-77
2022/08/13 12:13:05;;;;;;;1.33;1.33;;;29.20;52.30;;;;;;5008744;28;20459;-77
2022/08/13 12:15:35;;;;;;;1.60;1.50;;;29.20;52.30;;;;;;5020825;28;20446;-79
2022/08/13 12:18:24;;;;;;;1.63;1.57;;;29.20;52.30;;;;;;5010009;28;20553;-78
2022/08/13 12:20:56;;;;;;;1.50;1.50;;;29.20;52.40;;;;;;5015820;28;20491;-77
2022/08/13 12:23:27;;;;;;;1.60;1.50;;;29.20;52.30;;;;;;5024417;28;20939;-77
2022/08/13 12:26:05;;;;;;;1.77;1.67;;;29.20;52.40;;;;;;5012447;28;20819;-77
2022/08/13 12:28:34;;;;;;;1.30;1.30;;;29.20;52.30;;;;;;5024716;28;20511;-78
2022/08/13 12:31:05;;;;;;;1.33;1.33;;;29.20;52.30;;;;;;5009998;28;20559;-77
2022/08/13 12:33:37;;;;;;;1.50;1.40;;;29.30;52.20;;;;;;5013538;28;20947;-77
2022/08/13 12:39:50;;;;;;;1.20;1.20;;;29.30;52.30;;;;;;5004044;28;20469;-77
2022/08/13 12:42:21;;;;;;;1.63;1.63;;;29.30;52.10;;;;;;5015262;28;20545;-78
2022/08/13 12:44:56;;;;;;;1.43;1.40;;;29.20;52.30;;;;;;5012648;28;20450;-77
2022/08/13 12:47:45;;;;;;;1.67;1.57;;;29.20;52.40;;;;;;5018369;28;20542;-77
2022/08/13 12:50:17;;;;;;;2.00;1.90;;;29.20;52.40;;;;;;5013554;28;20525;-78
2022/08/13 12:52:49;;;;;;;1.57;1.47;;;29.10;52.40;;;;;;4997435;28;20852;-77
2022/08/13 12:55:18;;;;;;;1.40;1.37;;;29.10;52.30;;;;;;5009940;28;20851;-77
2022/08/13 12:58:17;;;;;;;1.27;1.27;;;29.10;52.40;;;;;;5008858;28;20576;-77
2022/08/13 13:00:53;;;;;;;1.70;1.60;;;29.10;52.40;;;;;;5018126;28;20860;-77
2022/08/13 13:07:05;;;;;;;1.50;1.50;;;29.10;52.40;;;;;;4981220;28;20501;-77
2022/08/13 13:09:35;;;;;;;1.40;1.40;;;29.20;52.30;;;;;;4973317;28;20477;-77
2022/08/13 13:12:16;;;;;;;1.73;1.63;;;29.20;52.40;;;;;;4972908;28;20519;-78
2022/08/13 13:14:47;;;;;;;1.43;1.43;;;29.20;52.30;;;;;;4976553;28;20470;-78
2022/08/13 13:17:29;;;;;;;1.60;1.53;;;29.20;52.20;;;;;;4970964;28;20586;-78
2022/08/13 13:20:17;;;;;;;1.40;1.30;;;29.20;52.20;;;;;;4974015;28;21312;-78
2022/08/13 13:22:45;;;;;;;1.50;1.40;;;29.20;52.30;;;;;;4986161;28;20558;-78
2022/08/13 13:25:20;;;;;;;1.97;1.87;;;29.20;52.30;;;;;;4966770;28;20464;-78
2022/08/13 13:27:51;;;;;;;1.30;1.30;;;29.30;52.20;;;;;;4972565;28;20945;-77
2022/08/13 13:30:21;;;;;;;1.30;1.30;;;29.30;52.20;;;;;;4990345;28;20535;-77
2022/08/13 13:32:52;;;;;;;2.20;2.10;;;29.30;52.20;;;;;;5015284;28;20507;-77
2022/08/13 13:35:24;;;;;;;1.50;1.50;;;29.30;52.10;;;;;;5008507;28;20491;-78
2022/08/13 13:38:16;;;;;;;1.67;1.57;;;29.30;52.10;;;;;;5006633;28;20466;-81
2022/08/13 13:40:47;;;;;;;1.37;1.37;;;29.30;52.10;;;;;;5024038;28;20868;-78
2022/08/13 13:43:19;;;;;;;2.10;1.70;;;29.30;52.20;;;;;;5008303;28;20505;-78
2022/08/13 13:45:54;;;;;;;1.50;1.50;;;29.20;52.20;;;;;;5018433;28;20880;-78
2022/08/13 13:48:32;;;;;;;1.77;1.67;;;29.30;52.10;;;;;;5013085;28;20465;-79
2022/08/13 13:51:05;;;;;;;1.43;1.43;;;29.30;52.10;;;;;;5009638;28;20529;-77
2022/08/13 13:53:37;;;;;;;1.90;1.80;;;29.30;52.10;;;;;;5012924;28;20479;-78
2022/08/13 13:56:25;;;;;;;1.80;1.70;;;29.30;52.10;;;;;;5016932;28;20470;-77
2022/08/13 13:58:54;;;;;;;1.57;1.53;;;29.30;52.10;;;;;;5019611;28;20567;-81